createdAt,value
2022-11-28T00:04:35.836Z,7.12
2022-11-28T00:09:41.941Z,8.19
2022-11-28T00:14:48.477Z,7.55
2022-11-28T00:19:54.524Z,7.44
2022-11-28T00:25:00.713Z,8.34
2022-11-28T00:30:07.187Z,6.88
2022-11-28T00:35:14.282Z,8.03
2022-11-28T00:40:20.656Z,6.66
2022-11-28T00:45:26.900Z,8.46
2022-11-28T00:50:32.915Z,7.23
2022-11-28T00:55:39.141Z,6.49
2022-11-28T01:00:45.317Z,7.80
2022-11-28T01:05:51.475Z,7.41
2022-11-28T01:10:57.588Z,7.20
2022-11-28T01:16:04.082Z,7.86
2022-11-28T01:21:10.138Z,7.41
2022-11-28T01:26:16.324Z,8.48
2022-11-28T01:31:22.549Z,7.78
2022-11-28T01:36:28.683Z,7.57
2022-11-28T01:41:34.784Z,6.78
2022-11-28T01:46:40.988Z,7.31
2022-11-28T01:51:47.003Z,9.49
2022-11-28T01:56:53.247Z,7.53
2022-11-28T02:01:59.767Z,7.16
2022-11-28T02:07:06.792Z,6.09
2022-11-28T02:12:12.869Z,6.63
2022-11-28T02:17:19.053Z,8.42
2022-11-28T02:22:25.254Z,6.50
2022-11-28T02:27:31.445Z,6.99
2022-11-28T02:32:37.582Z,8.04
2022-11-28T02:37:43.716Z,6.86
2022-11-28T02:42:50.071Z,7.17
2022-11-28T02:47:56.280Z,7.53
2022-11-28T02:53:02.410Z,7.53
2022-11-28T02:58:08.621Z,6.36
2022-11-28T03:03:14.796Z,6.97
2022-11-28T03:08:20.944Z,6.33
2022-11-28T03:13:27.073Z,8.14
2022-11-28T03:18:33.596Z,6.27
2022-11-28T03:23:39.861Z,8.36
2022-11-28T03:28:46.013Z,6.70
2022-11-28T03:33:52.058Z,6.81
2022-11-28T03:38:58.499Z,7.19
2022-11-28T03:44:04.605Z,7.12
2022-11-28T03:49:10.857Z,6.52
2022-11-28T03:54:16.912Z,6.95
2022-11-28T03:59:23.038Z,6.93
2022-11-28T04:04:29.408Z,5.98
2022-11-28T04:09:35.894Z,6.91
2022-11-28T04:14:42.323Z,6.35
2022-11-28T04:19:47.930Z,7.54
2022-11-28T04:24:54.112Z,7.78
2022-11-28T04:30:00.336Z,7.15
2022-11-28T04:35:06.437Z,6.57
2022-11-28T04:40:12.598Z,6.43
2022-11-28T04:45:18.715Z,5.87
2022-11-28T04:50:24.873Z,6.18
2022-11-28T04:55:30.986Z,6.74
2022-11-28T05:00:37.624Z,6.24
2022-11-28T05:05:43.631Z,7.25
2022-11-28T05:10:49.870Z,8.13
2022-11-28T05:15:56.039Z,7.19
2022-11-28T05:21:02.218Z,6.45
2022-11-28T05:26:08.604Z,7.34
2022-11-28T05:31:15.660Z,6.88
2022-11-28T05:36:21.703Z,6.79
2022-11-28T05:41:28.336Z,7.55
2022-11-28T05:46:34.415Z,6.76
2022-11-28T05:51:40.571Z,6.41
2022-11-28T05:56:46.712Z,6.55
2022-11-28T06:01:53.031Z,8.71
2022-11-28T06:06:59.049Z,8.17
2022-11-28T06:12:05.263Z,7.87
2022-11-28T06:17:11.336Z,8.44
2022-11-28T06:22:17.487Z,8.91
2022-11-28T06:27:23.564Z,8.52
2022-11-28T06:32:29.873Z,8.89
2022-11-28T06:37:35.924Z,10.63
2022-11-28T06:42:42.212Z,11.52
2022-11-28T06:47:48.280Z,10.83
2022-11-28T06:52:54.508Z,12.06
2022-11-28T06:58:00.634Z,11.89
2022-11-28T07:03:06.884Z,10.78
2022-11-28T07:08:13.059Z,11.86
2022-11-28T07:13:19.141Z,12.00
2022-11-28T07:18:25.199Z,12.00
2022-11-28T07:23:31.483Z,13.61
2022-11-28T07:28:38.401Z,14.25
2022-11-28T07:33:44.647Z,12.23
2022-11-28T07:38:50.739Z,12.87
2022-11-28T07:44:45.716Z,14.60
2022-11-28T07:49:51.776Z,12.95
2022-11-28T07:54:58.002Z,15.11
2022-11-28T08:00:04.082Z,16.81
2022-11-28T08:05:10.344Z,14.84
2022-11-28T08:10:16.332Z,13.56
2022-11-28T08:15:22.545Z,14.94
2022-11-28T08:20:28.618Z,13.97
2022-11-28T08:25:34.834Z,15.72
2022-11-28T08:30:40.969Z,15.01
2022-11-28T08:35:47.139Z,15.23
2022-11-28T08:40:53.191Z,16.22
2022-11-28T08:45:59.370Z,13.60
2022-11-28T08:51:05.413Z,15.54
2022-11-28T08:56:11.554Z,13.67
2022-11-28T09:01:17.786Z,13.37
2022-11-28T09:06:23.947Z,14.01
2022-11-28T09:11:30.754Z,14.53
2022-11-28T09:16:36.945Z,14.15
2022-11-28T09:21:42.944Z,13.66
2022-11-28T09:26:49.057Z,14.74
2022-11-28T09:31:55.104Z,12.30
2022-11-28T09:37:04.882Z,13.27
2022-11-28T09:42:06.804Z,14.34
2022-11-28T09:47:12.952Z,16.10
2022-11-28T09:52:19.148Z,12.26
2022-11-28T09:57:25.454Z,12.19
2022-11-28T10:02:31.662Z,12.05
2022-11-28T10:07:37.853Z,17.37
2022-11-28T10:12:43.849Z,12.94
2022-11-28T10:17:50.094Z,12.61
2022-11-28T10:22:56.277Z,12.79
2022-11-28T10:28:02.480Z,13.38
2022-11-28T10:33:08.532Z,11.89
2022-11-28T10:38:14.841Z,14.39
2022-11-28T10:43:20.936Z,14.31
2022-11-28T10:48:39.743Z,13.12
2022-11-28T10:53:32.779Z,12.66
2022-11-28T10:58:38.985Z,13.28
2022-11-28T11:03:45.905Z,12.56
2022-11-28T11:08:52.775Z,13.84
2022-11-28T11:13:59.438Z,13.00
2022-11-28T11:19:06.037Z,12.78
2022-11-28T11:24:12.544Z,13.16
2022-11-28T11:29:19.121Z,12.20
2022-11-28T11:34:27.222Z,14.75
2022-11-28T11:39:33.851Z,13.72
2022-11-28T11:44:39.835Z,12.94
2022-11-28T11:49:46.463Z,15.04
2022-11-28T11:54:51.805Z,15.36
2022-11-28T11:59:58.107Z,15.63
2022-11-28T12:05:04.220Z,16.10
2022-11-28T12:10:14.060Z,13.98
2022-11-28T12:15:20.173Z,13.89
2022-11-28T12:20:26.405Z,13.74
2022-11-28T12:25:32.468Z,13.84
2022-11-28T12:30:40.487Z,15.15
2022-11-28T12:35:44.263Z,13.41
2022-11-28T12:40:50.644Z,14.43
2022-11-28T12:45:56.719Z,14.75
2022-11-28T12:51:02.962Z,15.02
2022-11-28T12:56:09.069Z,13.77
2022-11-28T13:01:15.258Z,14.78
2022-11-28T13:06:21.410Z,16.20
2022-11-28T13:11:27.727Z,15.56
2022-11-28T13:16:33.877Z,15.10
2022-11-28T13:21:39.988Z,16.49
2022-11-28T13:26:46.081Z,14.11
2022-11-28T13:31:54.981Z,17.54
2022-11-28T13:42:28.364Z,14.18
2022-11-28T13:47:09.161Z,14.72
2022-11-28T13:52:15.547Z,15.79
2022-11-28T13:57:21.816Z,16.54
2022-11-28T14:02:27.912Z,14.96
2022-11-28T14:07:33.954Z,14.43
2022-11-28T14:12:40.109Z,15.22
2022-11-28T14:17:46.177Z,15.96
2022-11-28T14:22:52.776Z,16.57
2022-11-28T14:27:58.828Z,14.91
2022-11-28T14:33:04.956Z,17.49
2022-11-28T14:38:16.743Z,14.77
2022-11-28T14:43:17.612Z,20.12
2022-11-28T14:48:23.760Z,16.77
2022-11-28T14:53:29.937Z,18.39
2022-11-28T14:58:36.064Z,20.53
2022-11-28T15:03:42.302Z,19.29
2022-11-28T15:08:48.397Z,20.13
2022-11-28T15:13:54.659Z,18.09
2022-11-28T15:19:00.745Z,18.90
2022-11-28T15:24:06.922Z,17.83
2022-11-28T15:29:13.003Z,18.94
2022-11-28T15:34:20.071Z,20.74
2022-11-28T15:39:53.189Z,20.17
2022-11-28T15:44:59.483Z,18.69
2022-11-28T15:50:05.574Z,18.11
2022-11-28T15:55:11.812Z,20.97
2022-11-28T16:00:17.895Z,19.38
2022-11-28T16:05:24.037Z,20.73
2022-11-28T16:10:30.103Z,18.73
2022-11-28T16:15:36.348Z,20.24
2022-11-28T16:20:44.617Z,21.03
2022-11-28T16:25:51.249Z,19.75
2022-11-28T16:30:57.358Z,18.89
2022-11-28T16:36:03.554Z,22.68
2022-11-28T16:41:09.642Z,23.70
2022-11-28T16:46:15.951Z,21.76
2022-11-28T16:51:22.014Z,23.52
2022-11-28T16:56:28.280Z,23.56
2022-11-28T17:01:34.287Z,21.00
2022-11-28T17:06:40.405Z,20.49
2022-11-28T17:11:46.508Z,23.63
2022-11-28T17:16:52.950Z,23.13
2022-11-28T17:21:59.277Z,22.64
2022-11-28T17:27:05.398Z,23.23
2022-11-28T17:32:11.550Z,25.95
2022-11-28T17:37:17.699Z,22.90
2022-11-28T17:42:23.892Z,23.04
2022-11-28T17:47:30.042Z,22.44
2022-11-28T17:52:36.098Z,22.36
2022-11-28T17:57:42.343Z,25.47
2022-11-28T18:02:48.501Z,23.14
2022-11-28T18:07:54.674Z,23.27
2022-11-28T18:13:00.764Z,24.54
2022-11-28T18:18:07.430Z,25.22
2022-11-28T18:23:13.557Z,26.48
2022-11-28T18:28:19.792Z,28.00
2022-11-28T18:33:25.883Z,27.85
2022-11-28T18:38:32.033Z,27.77
2022-11-28T18:43:39.015Z,25.33
2022-11-28T18:48:45.800Z,27.97
2022-11-28T18:53:51.921Z,28.36
2022-11-28T18:58:58.321Z,27.18
2022-11-28T19:04:04.409Z,25.26
2022-11-28T19:09:10.613Z,27.87
2022-11-28T19:14:16.749Z,29.47
2022-11-28T19:19:22.898Z,26.85
2022-11-28T19:24:29.359Z,28.32
2022-11-28T19:29:35.691Z,28.13
2022-11-28T19:34:41.776Z,29.31
2022-11-28T19:39:48.083Z,28.30
2022-11-28T19:44:54.163Z,29.57
2022-11-28T19:50:00.411Z,30.25
2022-11-28T19:55:06.588Z,29.33
2022-11-28T20:00:12.771Z,29.18
2022-11-28T20:05:18.890Z,32.26
2022-11-28T20:10:25.115Z,28.42
2022-11-28T20:15:31.276Z,30.58
2022-11-28T20:20:37.489Z,29.72
2022-11-28T20:25:43.917Z,32.55
2022-11-28T20:30:50.043Z,30.33
2022-11-28T20:35:59.825Z,28.24
2022-11-28T20:41:01.928Z,28.42
2022-11-28T20:46:08.967Z,28.44
2022-11-28T20:51:15.088Z,29.12
2022-11-28T20:56:21.150Z,27.22
2022-11-28T21:01:27.474Z,30.40
2022-11-28T21:06:33.595Z,27.72
2022-11-28T21:11:56.768Z,29.52
2022-11-28T21:16:45.506Z,28.00
2022-11-28T21:21:51.726Z,30.22
2022-11-28T21:26:59.006Z,27.94
2022-11-28T21:32:04.150Z,27.26
2022-11-28T21:37:10.226Z,29.07
2022-11-28T21:42:20.514Z,28.30
2022-11-28T21:47:22.032Z,30.18
2022-11-28T21:52:29.095Z,29.61
2022-11-28T21:57:35.451Z,33.50
2022-11-28T22:02:41.812Z,33.12
2022-11-28T22:07:47.893Z,32.29
2022-11-28T22:12:54.123Z,31.82
2022-11-28T22:18:00.290Z,31.08
2022-11-28T22:23:06.501Z,28.91
2022-11-28T22:28:12.989Z,29.19
2022-11-28T22:33:19.187Z,29.27
2022-11-28T22:38:25.356Z,26.97
2022-11-28T22:43:31.544Z,28.90
2022-11-28T22:48:37.609Z,31.71
2022-11-28T22:53:43.721Z,27.77
2022-11-28T22:58:49.862Z,26.40
2022-11-28T23:03:56.300Z,30.37
2022-11-28T23:09:02.344Z,27.14
2022-11-28T23:14:08.578Z,27.65
2022-11-28T23:19:14.629Z,31.58
2022-11-28T23:24:20.870Z,30.16
2022-11-28T23:29:26.922Z,30.56
2022-11-28T23:34:33.064Z,29.04
2022-11-28T23:39:39.111Z,31.50
2022-11-28T23:44:45.603Z,30.52
2022-11-28T23:49:51.463Z,31.17
2022-11-28T23:54:57.776Z,33.28
